createdAt,value
2022-08-28T00:00:44.867Z,14.92
2022-08-28T00:03:31.141Z,14.88
2022-08-28T00:06:16.648Z,14.80
2022-08-28T00:09:01.971Z,14.85
2022-08-28T00:11:48.323Z,14.85
2022-08-28T00:14:34.606Z,14.75
2022-08-28T00:17:19.898Z,14.84
2022-08-28T00:20:07.793Z,14.85
2022-08-28T00:22:55.420Z,14.72
2022-08-28T00:25:40.892Z,14.60
2022-08-28T00:28:26.401Z,14.56
2022-08-28T00:31:13.175Z,14.55
2022-08-28T00:33:58.974Z,14.63
2022-08-28T00:36:45.112Z,14.58
2022-08-28T00:39:31.138Z,14.55
2022-08-28T00:42:17.332Z,14.60
2022-08-28T00:45:02.681Z,14.43
2022-08-28T00:47:48.257Z,14.41
2022-08-28T00:51:00.143Z,14.49
2022-08-28T00:53:46.178Z,14.38
2022-08-28T00:56:32.408Z,14.36
2022-08-28T00:59:20.667Z,14.40
2022-08-28T01:02:07.701Z,14.32
2022-08-28T01:04:54.193Z,14.29
2022-08-28T01:07:39.419Z,14.37
2022-08-28T01:10:27.886Z,14.36
2022-08-28T01:13:14.816Z,14.29
2022-08-28T01:16:01.356Z,14.24
2022-08-28T01:18:49.171Z,14.25
2022-08-28T01:22:07.354Z,14.39
2022-08-28T01:24:55.956Z,14.32
2022-08-28T01:27:42.035Z,14.25
2022-08-28T01:30:29.495Z,14.24
2022-08-28T01:33:15.832Z,14.18
2022-08-28T01:36:01.508Z,14.07
2022-08-28T01:38:52.757Z,13.95
2022-08-28T01:41:45.725Z,13.96
2022-08-28T01:44:31.078Z,13.92
2022-08-28T01:47:16.878Z,13.93
2022-08-28T01:50:02.283Z,13.97
2022-08-28T01:52:47.927Z,14.03
2022-08-28T01:55:35.721Z,13.91
2022-08-28T01:58:23.008Z,13.82
2022-08-28T02:01:13.512Z,13.79
2022-08-28T02:04:00.161Z,13.84
2022-08-28T02:06:45.905Z,13.75
2022-08-28T02:09:31.960Z,13.71
2022-08-28T02:12:17.709Z,13.74
2022-08-28T02:15:04.664Z,13.70
2022-08-28T02:17:50.021Z,13.58
2022-08-28T02:20:35.616Z,13.52
2022-08-28T02:23:21.151Z,13.57
2022-08-28T02:26:06.634Z,13.56
2022-08-28T02:28:51.854Z,13.58
2022-08-28T02:31:37.450Z,13.48
2022-08-28T02:34:23.585Z,13.42
2022-08-28T02:37:11.365Z,13.41
2022-08-28T02:39:58.087Z,13.39
2022-08-28T02:42:44.446Z,13.36
2022-08-28T02:45:30.002Z,13.31
2022-08-28T02:48:16.901Z,13.29
2022-08-28T02:51:06.528Z,13.36
2022-08-28T02:53:52.307Z,13.40
2022-08-28T02:56:37.540Z,13.41
2022-08-28T02:59:23.162Z,13.46
2022-08-28T03:02:09.085Z,13.49
2022-08-28T03:04:55.418Z,13.52
2022-08-28T03:07:40.724Z,13.51
2022-08-28T03:10:26.329Z,13.55
2022-08-28T03:13:12.000Z,13.50
2022-08-28T03:16:12.169Z,13.45
2022-08-28T03:18:57.833Z,13.36
2022-08-28T03:21:43.403Z,13.46
2022-08-28T03:24:28.928Z,13.43
2022-08-28T03:27:14.545Z,13.48
2022-08-28T03:30:00.202Z,13.43
2022-08-28T03:32:45.875Z,13.27
2022-08-28T03:35:31.668Z,13.26
2022-08-28T03:38:17.697Z,13.28
2022-08-28T03:41:03.536Z,13.29
2022-08-28T03:43:49.306Z,13.23
2022-08-28T03:46:35.090Z,13.19
2022-08-28T03:49:20.565Z,13.19
2022-08-28T03:52:06.558Z,13.03
2022-08-28T03:54:52.657Z,12.99
2022-08-28T03:57:39.115Z,13.10
2022-08-28T04:00:25.373Z,13.17
2022-08-28T04:03:14.088Z,13.05
2022-08-28T04:05:59.721Z,13.06
2022-08-28T04:08:45.421Z,13.30
2022-08-28T04:11:31.653Z,13.33
2022-08-28T04:14:17.033Z,13.26
2022-08-28T04:17:02.387Z,13.37
2022-08-28T04:19:47.911Z,13.41
2022-08-28T04:22:33.473Z,13.44
2022-08-28T04:25:19.437Z,13.50
2022-08-28T04:28:04.997Z,13.42
2022-08-28T04:30:55.189Z,13.51
2022-08-28T04:33:40.675Z,13.47
2022-08-28T04:36:25.969Z,13.62
2022-08-28T04:39:11.621Z,13.71
2022-08-28T04:41:56.918Z,13.69
2022-08-28T04:44:42.621Z,13.78
2022-08-28T04:47:28.122Z,13.81
2022-08-28T04:50:13.549Z,13.79
2022-08-28T04:52:59.109Z,13.66
2022-08-28T04:55:54.448Z,13.74
2022-08-28T04:58:43.241Z,13.74
2022-08-28T05:01:28.759Z,13.76
2022-08-28T05:04:14.417Z,13.66
2022-08-28T05:06:59.913Z,13.63
2022-08-28T05:09:45.273Z,13.64
2022-08-28T05:12:30.571Z,13.67
2022-08-28T05:15:16.213Z,13.60
2022-08-28T05:18:01.617Z,13.62
2022-08-28T05:20:48.196Z,13.70
2022-08-28T05:23:33.964Z,13.66
2022-08-28T05:26:19.870Z,13.73
2022-08-28T05:29:06.423Z,13.91
2022-08-28T05:31:52.026Z,14.09
2022-08-28T05:34:37.934Z,14.25
2022-08-28T05:37:23.596Z,14.11
2022-08-28T05:40:10.472Z,14.22
2022-08-28T05:42:55.996Z,14.23
2022-08-28T05:45:41.767Z,14.44
2022-08-28T05:48:30.404Z,14.68
2022-08-28T05:51:23.897Z,14.83
2022-08-28T05:54:10.684Z,15.00
2022-08-28T05:56:56.269Z,15.28
2022-08-28T05:59:41.702Z,15.55
2022-08-28T06:02:27.463Z,15.61
2022-08-28T06:05:13.256Z,15.80
2022-08-28T06:07:59.091Z,15.84
2022-08-28T06:10:44.866Z,15.89
2022-08-28T06:13:37.503Z,16.01
2022-08-28T06:16:24.422Z,16.42
2022-08-28T06:19:12.038Z,16.53
2022-08-28T06:22:00.331Z,16.60
2022-08-28T06:24:45.764Z,16.77
2022-08-28T06:27:33.550Z,16.80
2022-08-28T06:30:18.888Z,16.93
2022-08-28T06:33:05.379Z,16.99
2022-08-28T06:35:53.792Z,17.40
2022-08-28T06:38:39.568Z,17.31
2022-08-28T06:41:25.549Z,17.62
2022-08-28T06:44:14.309Z,17.86
2022-08-28T06:47:00.385Z,18.11
2022-08-28T06:49:45.704Z,18.26
2022-08-28T06:52:31.347Z,18.48
2022-08-28T06:55:17.427Z,18.73
2022-08-28T06:58:03.993Z,19.03
2022-08-28T07:00:58.160Z,19.33
2022-08-28T07:03:46.446Z,19.42
2022-08-28T07:06:36.181Z,19.76
2022-08-28T07:09:22.177Z,20.31
2022-08-28T07:12:08.836Z,20.56
2022-08-28T07:14:54.355Z,20.64
2022-08-28T07:17:39.579Z,20.86
2022-08-28T07:20:25.211Z,20.64
2022-08-28T07:23:11.125Z,20.83
2022-08-28T07:25:57.070Z,20.91
2022-08-28T07:28:42.984Z,20.98
2022-08-28T07:31:31.253Z,21.02
2022-08-28T07:34:18.766Z,21.56
2022-08-28T07:37:06.651Z,21.66
2022-08-28T07:39:52.296Z,22.22
2022-08-28T07:42:56.763Z,23.32
2022-08-28T07:45:43.038Z,23.57
2022-08-28T07:48:28.660Z,23.54
2022-08-28T07:51:14.110Z,24.41
2022-08-28T07:53:59.531Z,24.43
2022-08-28T07:56:45.798Z,24.15
2022-08-28T07:59:36.827Z,23.88
2022-08-28T08:02:22.966Z,23.07
2022-08-28T08:05:10.219Z,23.47
2022-08-28T08:07:56.795Z,24.06
2022-08-28T08:10:42.345Z,24.92
2022-08-28T08:13:29.615Z,25.69
2022-08-28T08:16:19.350Z,26.70
2022-08-28T08:19:05.208Z,27.69
2022-08-28T08:21:54.879Z,26.62
2022-08-28T08:24:41.165Z,25.82
2022-08-28T08:27:27.519Z,24.57
2022-08-28T08:30:13.286Z,25.85
2022-08-28T08:32:58.853Z,27.36
2022-08-28T08:35:44.295Z,27.36
2022-08-28T08:38:30.677Z,26.74
2022-08-28T08:41:39.082Z,25.50
2022-08-28T08:44:43.300Z,25.20
2022-08-28T08:47:41.269Z,25.67
2022-08-28T08:50:34.264Z,28.36
2022-08-28T08:53:25.657Z,28.12
2022-08-28T08:56:16.847Z,27.16
2022-08-28T08:59:07.876Z,26.22
2022-08-28T09:02:05.177Z,25.96
2022-08-28T09:04:59.303Z,26.71
2022-08-28T09:08:01.594Z,27.23
2022-08-28T09:11:00.684Z,26.39
2022-08-28T09:13:59.253Z,27.08
2022-08-28T09:16:47.198Z,28.98
2022-08-28T09:19:33.211Z,30.77
2022-08-28T09:22:19.288Z,31.78
2022-08-28T09:25:05.253Z,29.01
2022-08-28T09:27:53.812Z,27.32
2022-08-28T09:30:41.368Z,27.88
2022-08-28T09:33:49.087Z,30.88
2022-08-28T09:36:37.035Z,34.32
2022-08-28T09:39:35.578Z,30.19
2022-08-28T09:42:42.605Z,28.52
2022-08-28T09:45:29.070Z,26.66
2022-08-28T09:48:21.856Z,28.12
2022-08-28T09:51:11.601Z,29.30
2022-08-28T09:54:08.006Z,28.35
2022-08-28T09:56:54.213Z,27.55
2022-08-28T09:59:39.750Z,29.89
2022-08-28T10:02:39.437Z,31.21
2022-08-28T10:05:43.076Z,34.04
2022-08-28T10:08:54.922Z,34.59
2022-08-28T10:12:13.240Z,29.17
2022-08-28T10:15:04.382Z,29.44
2022-08-28T10:18:17.957Z,32.10
2022-08-28T10:21:10.436Z,34.21
2022-08-28T10:24:24.733Z,37.07
2022-08-28T10:27:26.867Z,34.73
2022-08-28T10:30:22.941Z,30.76
2022-08-28T10:33:25.831Z,29.24
2022-08-28T10:36:26.423Z,27.75
2022-08-28T10:39:33.232Z,29.02
2022-08-28T10:42:36.553Z,30.94
2022-08-28T10:45:26.278Z,29.03
2022-08-28T10:48:25.024Z,31.46
2022-08-28T10:51:17.337Z,34.99
2022-08-28T10:54:25.930Z,36.83
2022-08-28T10:57:24.052Z,31.22
2022-08-28T11:00:14.322Z,31.93
2022-08-28T11:03:02.617Z,36.18
2022-08-28T11:05:53.781Z,36.52
2022-08-28T11:08:39.817Z,36.94
2022-08-28T11:11:42.978Z,36.13
2022-08-28T11:14:30.575Z,31.76
2022-08-28T11:17:21.886Z,30.27
2022-08-28T11:20:13.832Z,31.94
2022-08-28T11:23:16.075Z,31.15
2022-08-28T11:26:07.775Z,32.57
2022-08-28T11:28:53.206Z,32.91
2022-08-28T11:31:40.932Z,33.42
2022-08-28T11:34:44.908Z,31.82
2022-08-28T11:37:41.428Z,29.87
2022-08-28T11:40:32.527Z,30.10
2022-08-28T11:43:18.778Z,29.85
2022-08-28T11:46:05.851Z,34.49
2022-08-28T11:48:52.499Z,35.91
2022-08-28T11:51:49.114Z,37.54
2022-08-28T11:54:44.057Z,34.08
2022-08-28T11:57:41.079Z,31.18
2022-08-28T12:00:29.050Z,31.04
2022-08-28T12:03:36.860Z,34.89
2022-08-28T12:06:41.229Z,36.63
2022-08-28T12:09:26.323Z,37.60
2022-08-28T12:12:20.411Z,39.28
2022-08-28T12:15:08.030Z,36.75
2022-08-28T12:17:57.112Z,37.57
2022-08-28T12:20:51.090Z,38.31
2022-08-28T12:23:39.213Z,39.67
2022-08-28T12:26:39.776Z,40.79
2022-08-28T12:29:34.827Z,38.88
2022-08-28T12:32:28.780Z,38.36
2022-08-28T12:35:21.354Z,38.78
2022-08-28T12:38:09.191Z,34.98
2022-08-28T12:40:54.748Z,37.13
2022-08-28T12:43:46.681Z,37.38
2022-08-28T12:46:37.511Z,40.12
2022-08-28T12:49:28.326Z,39.59
2022-08-28T12:52:16.883Z,39.42
2022-08-28T12:55:02.178Z,37.73
2022-08-28T12:57:47.930Z,38.49
2022-08-28T13:00:35.709Z,38.30
2022-08-28T13:03:22.526Z,39.33
2022-08-28T13:06:09.325Z,39.40
2022-08-28T13:08:57.543Z,41.08
2022-08-28T13:11:47.171Z,41.50
2022-08-28T13:14:38.312Z,41.33
2022-08-28T13:17:42.105Z,39.38
2022-08-28T13:20:34.988Z,41.09
2022-08-28T13:23:29.571Z,41.01
2022-08-28T13:26:19.529Z,38.75
2022-08-28T13:29:16.592Z,38.14
2022-08-28T13:32:01.905Z,39.95
2022-08-28T13:35:05.438Z,40.30
2022-08-28T13:37:52.082Z,40.45
2022-08-28T13:40:57.422Z,38.41
2022-08-28T13:43:44.855Z,40.48
2022-08-28T13:46:30.429Z,39.89
2022-08-28T13:49:16.925Z,40.05
2022-08-28T13:52:04.541Z,36.03
2022-08-28T13:54:50.884Z,37.79
2022-08-28T13:57:36.251Z,38.38
2022-08-28T14:00:21.650Z,39.04
2022-08-28T14:03:25.552Z,40.04
2022-08-28T14:06:16.744Z,39.87
2022-08-28T14:09:02.463Z,39.13
2022-08-28T14:11:48.383Z,39.83
2022-08-28T14:14:34.169Z,38.38
2022-08-28T14:17:21.417Z,38.13
2022-08-28T14:20:06.973Z,38.69
2022-08-28T14:22:52.768Z,37.97
2022-08-28T14:25:42.068Z,37.27
2022-08-28T14:28:27.411Z,38.05
2022-08-28T14:31:14.767Z,38.39
2022-08-28T14:34:00.343Z,37.14
2022-08-28T14:36:46.051Z,36.84
2022-08-28T14:39:32.023Z,34.73
2022-08-28T14:42:18.485Z,32.50
2022-08-28T14:45:04.102Z,33.98
2022-08-28T14:47:49.605Z,34.99
2022-08-28T14:50:38.033Z,36.57
2022-08-28T14:53:23.232Z,36.75
2022-08-28T14:56:09.024Z,35.90
2022-08-28T14:58:54.090Z,36.19
2022-08-28T15:01:40.962Z,36.01
2022-08-28T15:04:28.063Z,36.45
2022-08-28T15:07:13.680Z,36.63
2022-08-28T15:09:58.805Z,36.27
2022-08-28T15:12:44.018Z,34.69
2022-08-28T15:15:29.901Z,34.17
2022-08-28T15:18:15.666Z,33.82
2022-08-28T15:21:00.795Z,35.33
2022-08-28T15:23:48.171Z,34.43
2022-08-28T15:26:34.058Z,34.06
2022-08-28T15:29:19.542Z,34.23
2022-08-28T15:32:05.311Z,34.63
2022-08-28T15:34:51.658Z,34.77
2022-08-28T15:37:37.079Z,31.03
2022-08-28T15:40:41.059Z,31.64
2022-08-28T15:43:26.390Z,31.04
2022-08-28T15:46:12.832Z,32.70
2022-08-28T15:48:58.120Z,30.65
2022-08-28T15:51:43.371Z,28.43
2022-08-28T15:54:29.969Z,27.67
2022-08-28T15:57:15.553Z,27.86
2022-08-28T16:00:00.936Z,26.69
2022-08-28T16:02:45.971Z,26.16
2022-08-28T16:05:34.795Z,25.00
2022-08-28T16:08:25.166Z,24.43
2022-08-28T16:11:13.707Z,24.88
2022-08-28T16:13:59.056Z,24.81
2022-08-28T16:16:46.382Z,24.35
2022-08-28T16:19:34.686Z,24.13
2022-08-28T16:22:20.441Z,24.10
2022-08-28T16:25:05.855Z,23.81
2022-08-28T16:27:51.021Z,23.59
2022-08-28T16:30:37.556Z,23.06
2022-08-28T16:33:30.302Z,23.02
2022-08-28T16:36:16.446Z,23.29
2022-08-28T16:39:04.061Z,23.37
2022-08-28T16:41:50.177Z,22.71
2022-08-28T16:44:36.890Z,22.60
2022-08-28T16:47:22.169Z,22.28
2022-08-28T16:50:09.105Z,22.03
2022-08-28T16:52:55.085Z,21.95
2022-08-28T16:55:40.510Z,21.91
2022-08-28T16:58:25.661Z,22.02
2022-08-28T17:01:11.946Z,22.20
2022-08-28T17:03:57.580Z,22.08
2022-08-28T17:06:43.426Z,22.07
2022-08-28T17:09:28.579Z,21.99
2022-08-28T17:12:14.133Z,21.87
2022-08-28T17:15:01.354Z,21.60
2022-08-28T17:17:47.100Z,21.33
2022-08-28T17:20:50.576Z,21.19
2022-08-28T17:23:36.246Z,20.95
2022-08-28T17:26:23.393Z,20.79
2022-08-28T17:29:09.311Z,20.61
2022-08-28T17:31:56.537Z,20.56
2022-08-28T17:34:42.055Z,20.45
2022-08-28T17:37:27.462Z,20.29
2022-08-28T17:40:16.359Z,20.25
2022-08-28T17:43:02.771Z,20.05
2022-08-28T17:45:48.363Z,19.92
2022-08-28T17:48:36.509Z,19.78
2022-08-28T17:51:23.492Z,19.74
2022-08-28T17:54:27.146Z,19.76
2022-08-28T17:57:13.971Z,19.55
2022-08-28T18:00:00.516Z,19.52
2022-08-28T18:02:46.210Z,19.36
2022-08-28T18:05:31.756Z,19.24
2022-08-28T18:46:32.747Z,17.75
2022-08-28T18:49:17.959Z,17.61
2022-08-28T18:52:03.530Z,17.60
2022-08-28T18:54:49.204Z,17.49
2022-08-28T18:57:35.607Z,17.46
2022-08-28T19:00:21.800Z,17.43
2022-08-28T19:03:07.384Z,17.29
2022-08-28T19:05:54.854Z,17.16
2022-08-28T19:08:40.304Z,17.03
2022-08-28T19:11:26.803Z,16.97
2022-08-28T19:14:12.135Z,16.93
2022-08-28T19:16:57.526Z,16.94
2022-08-28T19:19:42.642Z,16.80
2022-08-28T19:22:28.601Z,16.71
2022-08-28T19:25:27.474Z,16.64
2022-08-28T19:28:13.850Z,16.59
2022-08-28T19:30:59.702Z,16.51
2022-08-28T19:33:46.396Z,16.44
2022-08-28T19:36:31.408Z,16.31
2022-08-28T19:39:17.481Z,16.24
2022-08-28T19:42:02.839Z,16.22
2022-08-28T19:44:51.182Z,16.20
2022-08-28T19:47:45.297Z,16.28
2022-08-28T19:50:30.486Z,16.19
2022-08-28T19:53:16.188Z,16.13
2022-08-28T19:56:01.267Z,16.11
2022-08-28T19:58:46.492Z,16.10
2022-08-28T20:01:37.621Z,15.94
2022-08-28T20:04:23.181Z,15.93
2022-08-28T20:07:10.624Z,15.92
2022-08-28T20:09:56.013Z,15.87
2022-08-28T20:12:45.048Z,15.80
2022-08-28T20:15:33.649Z,15.76
2022-08-28T20:18:19.983Z,15.66
2022-08-28T20:21:09.066Z,15.62
2022-08-28T20:23:54.447Z,15.68
2022-08-28T20:26:39.935Z,15.58
2022-08-28T20:29:25.372Z,15.52
2022-08-28T20:32:10.962Z,15.49
2022-08-28T20:34:56.263Z,15.42
2022-08-28T20:37:44.951Z,15.44
2022-08-28T20:40:31.162Z,15.32
2022-08-28T20:43:16.628Z,15.29
2022-08-28T20:46:05.763Z,15.30
2022-08-28T20:48:51.032Z,15.26
2022-08-28T20:51:56.679Z,15.24
2022-08-28T20:54:42.388Z,15.12
2022-08-28T20:57:27.908Z,15.06
2022-08-28T21:00:13.935Z,15.03
2022-08-28T21:02:59.319Z,15.00
2022-08-28T21:05:48.052Z,14.97
2022-08-28T21:08:34.367Z,14.90
2022-08-28T21:11:19.741Z,14.84
2022-08-28T21:14:05.376Z,14.81
2022-08-28T21:16:50.775Z,14.72
2022-08-28T21:19:40.175Z,14.67
2022-08-28T21:22:26.348Z,14.65
2022-08-28T21:25:12.033Z,14.51
2022-08-28T21:27:57.133Z,14.46
2022-08-28T21:30:42.518Z,14.45
2022-08-28T21:33:27.962Z,14.53
2022-08-28T21:36:15.363Z,14.52
2022-08-28T21:39:00.835Z,14.47
2022-08-28T21:41:46.504Z,14.48
2022-08-28T21:44:32.123Z,14.48
2022-08-28T21:47:17.367Z,14.45
2022-08-28T21:50:02.900Z,14.48
2022-08-28T21:52:48.350Z,14.43
2022-08-28T21:55:33.522Z,14.51
2022-08-28T21:58:19.382Z,14.50
2022-08-28T22:01:05.279Z,14.76
2022-08-28T22:03:50.558Z,14.83
2022-08-28T22:06:35.797Z,14.90
2022-08-28T22:09:22.013Z,15.14
2022-08-28T22:12:08.944Z,15.08
2022-08-28T22:14:54.301Z,15.27
2022-08-28T22:17:39.487Z,15.39
2022-08-28T22:20:25.515Z,15.43
2022-08-28T22:23:10.961Z,15.58
2022-08-28T22:25:56.554Z,15.64
2022-08-28T22:28:41.625Z,15.80
2022-08-28T22:31:26.989Z,15.92
2022-08-28T22:34:12.360Z,16.02
2022-08-28T22:36:57.812Z,16.15
2022-08-28T22:39:43.220Z,16.23
2022-08-28T22:42:28.252Z,16.23
2022-08-28T22:45:13.842Z,16.45
2022-08-28T22:47:59.497Z,16.49
2022-08-28T22:50:46.265Z,16.52
2022-08-28T22:53:31.930Z,16.55
2022-08-28T22:56:17.660Z,16.57
2022-08-28T22:59:03.023Z,16.65
2022-08-28T23:01:48.340Z,16.57
2022-08-28T23:04:34.353Z,16.71
2022-08-28T23:07:20.034Z,16.73
2022-08-28T23:10:06.061Z,16.80
2022-08-28T23:12:51.393Z,16.73
2022-08-28T23:15:36.824Z,16.74
2022-08-28T23:18:23.644Z,16.64
2022-08-28T23:21:09.584Z,16.73
2022-08-28T23:23:55.506Z,16.70
2022-08-28T23:26:40.731Z,16.66
2022-08-28T23:29:26.177Z,16.68
2022-08-28T23:32:11.649Z,16.67
2022-08-28T23:34:57.190Z,16.76
2022-08-28T23:37:48.022Z,16.75
2022-08-28T23:40:34.371Z,16.84
2022-08-28T23:43:19.613Z,16.83
2022-08-28T23:46:05.293Z,16.87
2022-08-28T23:48:51.190Z,16.84
2022-08-28T23:51:36.681Z,16.86
2022-08-28T23:54:22.010Z,16.92
2022-08-28T23:57:07.597Z,16.91
2022-08-28T23:59:53.504Z,16.94
